This is the latest recevied weather packets stored in our database for station/object RA1AMO-10. If no packets are shown the sender has not sent any weather packets the latest 10 day(s).
| Time | Temp. | Humidity | Pressure | Rain* | Wind** | Luminosity | Snow |
|---|---|---|---|---|---|---|---|
| 1777737763 | 17.22° C | 34% | 1007.2 hPa | - | - | - | - |
| 1777735962 | 18.89° C | 32% | 1007.1 hPa | - | - | - | - |
| 1777735062 | 18.89° C | 31% | 1007.3 hPa | - | - | - | - |
| 1777733262 | 19.44° C | 31% | 1007.3 hPa | - | - | - | - |
| 1777732362 | 20.56° C | 28% | 1007.3 hPa | - | - | - | - |
| 1777731461 | 20° C | 30% | 1007.6 hPa | - | - | - | - |
| 1777730561 | 19.44° C | 31% | 1007.8 hPa | - | - | - | - |
| 1777728761 | 17.78° C | 35% | 1008.1 hPa | - | - | - | - |
| 1777727861 | 17.78° C | 37% | 1008.2 hPa | - | - | - | - |
| 1777725160 | 16.67° C | 41% | 1008.5 hPa | - | - | - | - |
| 1777724260 | 15.56° C | 43% | 1008.5 hPa | - | - | - | - |
| 1777723360 | 14.44° C | 45% | 1008.6 hPa | - | - | - | - |
| 1777722460 | 14.44° C | 45% | 1008.6 hPa | - | - | - | - |
| 1777721559 | 15° C | 44% | 1008.7 hPa | - | - | - | - |
| 1777720670 | 15° C | 45% | 1008.7 hPa | - | - | - | - |
| 1777719769 | 18.33° C | 36% | 1008.4 hPa | - | - | - | - |
| 1777718871 | 16.67° C | 40% | 1008.4 hPa | - | - | - | - |
| 1777717959 | 16.11° C | 42% | 1008.5 hPa | - | - | - | - |
| 1777717059 | 16.11° C | 43% | 1008.7 hPa | - | - | - | - |
| 1777716159 | 15.56° C | 43% | 1008.8 hPa | - | - | - | - |
| 1777715259 | 15.56° C | 42% | 1008.8 hPa | - | - | - | - |
| 1777714358 | 15.56° C | 43% | 1009 hPa | - | - | - | - |
| 1777713457 | 15° C | 44% | 1009.1 hPa | - | - | - | - |
| 1777712557 | 15° C | 45% | 1009.2 hPa | - | - | - | - |
| 1777711657 | 13.89° C | 46% | 1009.3 hPa | - | - | - | - |
* Rain since midnight (hover to see other rain measurements)
** Current wind speed in m/s (hover to see current wind gust speed)